createdAt,value
2023-01-19T00:01:46.461Z,11.15
2023-01-19T00:04:12.915Z,12.15
2023-01-19T00:06:39.359Z,10.40
2023-01-19T00:09:05.797Z,9.77
2023-01-19T00:11:32.230Z,11.15
2023-01-19T00:13:58.676Z,12.45
2023-01-19T00:16:25.142Z,11.52
2023-01-19T00:18:51.601Z,12.98
2023-01-19T00:21:18.023Z,11.63
2023-01-19T00:23:44.416Z,11.40
2023-01-19T00:26:10.813Z,13.35
2023-01-19T00:28:37.207Z,12.05
2023-01-19T00:31:03.639Z,12.68
2023-01-19T00:33:30.037Z,13.57
2023-01-19T00:35:56.506Z,14.35
2023-01-19T00:38:22.884Z,13.32
2023-01-19T00:40:49.258Z,14.63
2023-01-19T00:43:15.649Z,13.70
2023-01-19T00:45:42.121Z,14.50
2023-01-19T00:48:08.516Z,12.80
2023-01-19T00:50:34.954Z,13.15
2023-01-19T00:53:01.985Z,11.23
2023-01-19T00:55:28.600Z,11.43
2023-01-19T00:57:55.030Z,9.57
2023-01-19T01:00:21.692Z,9.55
2023-01-19T01:02:48.430Z,11.43
2023-01-19T01:05:14.882Z,12.23
2023-01-19T01:07:41.319Z,13.80
2023-01-19T01:10:07.694Z,11.20
2023-01-19T01:12:34.113Z,11.38
2023-01-19T01:15:00.493Z,13.23
2023-01-19T01:17:26.861Z,13.30
2023-01-19T01:19:53.281Z,13.05
2023-01-19T01:22:19.709Z,13.30
2023-01-19T01:24:46.091Z,12.60
2023-01-19T01:27:12.448Z,10.95
2023-01-19T01:29:38.822Z,12.18
2023-01-19T01:32:05.436Z,12.75
2023-01-19T01:34:31.816Z,13.30
2023-01-19T01:36:58.171Z,13.50
2023-01-19T01:39:24.549Z,12.50
2023-01-19T01:41:50.917Z,12.77
2023-01-19T01:44:22.236Z,10.20
2023-01-19T01:46:48.656Z,12.13
2023-01-19T01:49:15.116Z,12.23
2023-01-19T01:51:41.578Z,10.68
2023-01-19T01:54:07.973Z,10.45
2023-01-19T01:56:34.375Z,11.43
2023-01-19T01:59:00.797Z,11.02
2023-01-19T02:01:29.256Z,10.50
2023-01-19T02:03:55.772Z,11.50
2023-01-19T02:06:22.204Z,10.60
2023-01-19T02:08:48.643Z,9.80
2023-01-19T02:11:15.252Z,10.57
2023-01-19T02:13:41.685Z,10.73
2023-01-19T02:16:08.120Z,13.70
2023-01-19T02:18:34.565Z,10.13
2023-01-19T02:21:00.998Z,11.88
2023-01-19T02:23:27.381Z,12.93
2023-01-19T02:25:53.801Z,11.68
2023-01-19T02:28:20.233Z,12.52
2023-01-19T02:30:46.661Z,13.00
2023-01-19T02:33:13.067Z,10.80
2023-01-19T02:35:39.525Z,10.57
2023-01-19T02:38:06.046Z,10.82
2023-01-19T02:40:32.474Z,12.80
2023-01-19T02:42:59.223Z,11.88
2023-01-19T02:45:25.927Z,10.25
2023-01-19T02:47:52.323Z,10.77
2023-01-19T02:50:18.756Z,11.07
2023-01-19T02:52:45.149Z,11.25
2023-01-19T02:55:11.572Z,11.80
2023-01-19T02:57:37.949Z,11.68
2023-01-19T03:00:04.318Z,10.80
2023-01-19T03:02:30.810Z,10.50
2023-01-19T03:04:57.272Z,11.35
2023-01-19T03:07:23.668Z,9.82
2023-01-19T03:09:50.029Z,9.88
2023-01-19T03:12:16.402Z,9.32
2023-01-19T03:14:42.835Z,9.00
2023-01-19T03:17:09.216Z,8.90
2023-01-19T03:19:35.586Z,7.03
2023-01-19T03:22:01.992Z,7.95
2023-01-19T03:24:28.383Z,6.57
2023-01-19T03:26:54.806Z,5.88
2023-01-19T03:29:21.246Z,5.78
2023-01-19T03:31:47.785Z,6.50
2023-01-19T03:34:14.288Z,6.68
2023-01-19T03:36:40.709Z,6.38
2023-01-19T03:39:07.086Z,6.15
2023-01-19T03:41:33.453Z,7.57
2023-01-19T03:43:59.841Z,6.95
2023-01-19T03:46:26.243Z,6.75
2023-01-19T03:48:52.636Z,7.43
2023-01-19T03:51:19.066Z,5.78
2023-01-19T03:53:45.454Z,6.43
2023-01-19T03:56:11.812Z,6.05
2023-01-19T03:58:38.181Z,6.13
2023-01-19T04:01:04.642Z,5.10
2023-01-19T04:03:31.107Z,6.88
2023-01-19T04:05:57.483Z,6.30
2023-01-19T04:08:23.900Z,6.00
2023-01-19T04:10:50.300Z,6.20
2023-01-19T04:13:16.738Z,5.22
2023-01-19T04:15:43.233Z,4.75
2023-01-19T04:18:09.626Z,4.75
2023-01-19T04:20:36.047Z,4.50
2023-01-19T04:23:02.829Z,5.00
2023-01-19T04:25:29.459Z,4.10
2023-01-19T04:27:55.892Z,4.97
2023-01-19T04:30:22.350Z,5.30
2023-01-19T04:32:48.774Z,6.28
2023-01-19T04:35:15.212Z,5.22
2023-01-19T04:37:41.650Z,5.57
2023-01-19T04:40:08.036Z,5.18
2023-01-19T04:42:34.455Z,4.90
2023-01-19T04:45:00.889Z,4.65
2023-01-19T04:47:27.334Z,4.57
2023-01-19T04:49:53.776Z,4.20
2023-01-19T04:52:20.162Z,3.55
2023-01-19T04:54:46.519Z,4.00
2023-01-19T04:57:12.932Z,4.45
2023-01-19T04:59:39.318Z,3.65
2023-01-19T05:02:05.734Z,3.25
2023-01-19T05:04:32.207Z,3.70
2023-01-19T05:06:58.669Z,3.58
2023-01-19T05:09:25.095Z,3.22
2023-01-19T05:11:51.476Z,3.30
2023-01-19T05:14:17.914Z,2.80
2023-01-19T05:16:44.344Z,2.85
2023-01-19T05:19:10.727Z,2.80
2023-01-19T05:21:37.124Z,2.75
2023-01-19T05:24:03.562Z,2.90
2023-01-19T05:26:30.006Z,2.83
2023-01-19T05:28:56.675Z,3.72
2023-01-19T05:31:23.182Z,2.28
2023-01-19T05:33:49.645Z,2.55
2023-01-19T05:36:16.026Z,2.20
2023-01-19T05:38:42.440Z,2.30
2023-01-19T05:41:08.884Z,3.00
2023-01-19T05:43:35.327Z,2.70
2023-01-19T05:46:01.705Z,2.85
2023-01-19T05:48:28.081Z,2.88
2023-01-19T05:50:54.448Z,2.95
2023-01-19T05:53:20.839Z,2.50
2023-01-19T05:55:47.266Z,2.13
2023-01-19T05:58:13.706Z,2.28
2023-01-19T06:00:40.134Z,2.17
2023-01-19T06:03:06.630Z,2.30
2023-01-19T06:05:33.041Z,2.22
2023-01-19T06:07:59.406Z,2.10
2023-01-19T06:10:25.783Z,1.70
2023-01-19T06:12:52.214Z,2.10
2023-01-19T06:15:18.595Z,1.95
2023-01-19T06:17:45.038Z,1.88
2023-01-19T06:20:11.419Z,1.48
2023-01-19T06:22:37.795Z,1.60
2023-01-19T06:25:04.185Z,2.55
2023-01-19T06:27:30.551Z,1.55
2023-01-19T06:29:56.934Z,1.50
2023-01-19T06:32:23.325Z,1.98
2023-01-19T06:34:49.758Z,1.40
2023-01-19T06:37:16.204Z,1.80
2023-01-19T06:39:42.586Z,1.00
2023-01-19T06:42:08.980Z,1.50
2023-01-19T06:44:35.399Z,1.15
2023-01-19T06:47:15.607Z,1.77
2023-01-19T06:49:42.599Z,1.10
2023-01-19T06:52:08.999Z,1.55
2023-01-19T06:54:35.404Z,1.63
2023-01-19T06:57:02.800Z,1.30
2023-01-19T06:59:29.279Z,2.25
2023-01-19T07:01:55.938Z,1.40
2023-01-19T07:04:22.461Z,1.25
2023-01-19T07:06:48.837Z,1.17
2023-01-19T07:09:16.897Z,1.65
2023-01-19T07:11:43.356Z,1.80
2023-01-19T07:14:09.729Z,1.80
2023-01-19T07:16:36.198Z,1.85
2023-01-19T07:19:02.675Z,2.00
2023-01-19T07:21:29.365Z,2.00
2023-01-19T07:23:55.947Z,2.38
2023-01-19T07:26:22.337Z,1.90
2023-01-19T07:28:48.763Z,1.80
2023-01-19T07:31:15.214Z,1.92
2023-01-19T07:33:41.678Z,1.60
2023-01-19T07:36:08.043Z,1.77
2023-01-19T07:38:34.420Z,1.02
2023-01-19T07:41:00.847Z,0.90
2023-01-19T07:43:27.292Z,1.10
2023-01-19T07:45:53.773Z,1.00
2023-01-19T07:48:20.181Z,1.33
2023-01-19T07:50:46.554Z,1.33
2023-01-19T07:53:12.975Z,1.05
2023-01-19T07:55:39.399Z,0.90
2023-01-19T07:58:05.835Z,1.13
2023-01-19T08:00:32.269Z,1.20
2023-01-19T08:02:58.843Z,1.02
2023-01-19T08:05:25.462Z,1.15
2023-01-19T08:07:54.075Z,1.30
2023-01-19T08:10:20.578Z,1.30
2023-01-19T08:12:46.951Z,1.00
2023-01-19T08:15:13.392Z,1.33
2023-01-19T08:17:39.785Z,1.23
2023-01-19T08:20:06.220Z,1.55
2023-01-19T08:22:32.636Z,1.25
2023-01-19T08:24:59.081Z,1.30
2023-01-19T08:27:25.517Z,2.05
2023-01-19T08:29:51.899Z,1.83
2023-01-19T08:32:18.391Z,2.08
2023-01-19T08:34:44.813Z,1.20
2023-01-19T08:37:11.204Z,1.50
2023-01-19T08:39:37.646Z,1.20
2023-01-19T08:42:04.102Z,1.02
2023-01-19T08:44:30.554Z,2.17
2023-01-19T08:46:56.935Z,1.42
2023-01-19T08:49:23.380Z,0.90
2023-01-19T08:51:49.751Z,1.50
2023-01-19T08:54:18.297Z,1.60
2023-01-19T08:56:45.083Z,2.08
2023-01-19T08:59:13.132Z,1.98
2023-01-19T09:01:40.670Z,1.67
2023-01-19T09:04:07.167Z,1.95
2023-01-19T09:06:33.541Z,1.67
2023-01-19T09:08:59.960Z,1.20
2023-01-19T09:11:26.362Z,1.60
2023-01-19T09:13:52.733Z,1.55
2023-01-19T09:16:19.194Z,1.20
2023-01-19T09:18:45.648Z,1.05
2023-01-19T09:21:12.086Z,1.40
2023-01-19T09:23:38.528Z,1.60
2023-01-19T09:26:04.928Z,2.05
2023-01-19T09:28:31.671Z,2.55
2023-01-19T09:30:58.257Z,1.80
2023-01-19T09:33:24.717Z,2.35
2023-01-19T09:35:51.147Z,2.13
2023-01-19T09:38:17.530Z,2.35
2023-01-19T09:40:43.923Z,1.80
2023-01-19T09:43:10.615Z,1.52
2023-01-19T09:45:37.039Z,1.50
2023-01-19T09:48:03.620Z,1.80
2023-01-19T09:50:30.132Z,1.95
2023-01-19T09:52:56.559Z,2.10
2023-01-19T09:55:22.988Z,1.80
2023-01-19T09:57:49.429Z,1.60
2023-01-19T10:00:15.863Z,1.77
2023-01-19T10:02:42.458Z,2.20
2023-01-19T10:05:08.960Z,2.60
2023-01-19T10:07:35.358Z,2.95
2023-01-19T10:10:01.751Z,2.33
2023-01-19T10:12:28.187Z,2.45
2023-01-19T10:14:54.576Z,2.13
2023-01-19T10:17:20.971Z,2.00
2023-01-19T10:19:47.398Z,1.85
2023-01-19T10:22:13.839Z,1.88
2023-01-19T10:24:40.294Z,2.58
2023-01-19T10:27:06.750Z,1.73
2023-01-19T10:29:33.150Z,2.35
2023-01-19T10:31:59.629Z,2.50
2023-01-19T10:34:26.072Z,1.73
2023-01-19T10:36:52.506Z,2.00
2023-01-19T10:39:18.955Z,2.10
2023-01-19T10:41:45.408Z,2.22
2023-01-19T10:44:11.841Z,2.30
2023-01-19T10:46:38.293Z,1.80
2023-01-19T10:49:04.807Z,2.10
2023-01-19T10:51:31.180Z,2.10
2023-01-19T10:53:57.616Z,1.77
2023-01-19T10:56:24.093Z,2.17
2023-01-19T10:58:50.535Z,2.00
2023-01-19T11:01:18.117Z,2.13
2023-01-19T11:03:44.598Z,2.22
2023-01-19T11:06:10.969Z,1.80
2023-01-19T11:08:37.412Z,1.90
2023-01-19T11:11:03.785Z,1.98
2023-01-19T11:13:30.152Z,1.52
2023-01-19T11:15:56.555Z,2.45
2023-01-19T11:18:22.956Z,1.85
2023-01-19T11:20:49.362Z,2.17
2023-01-19T11:23:15.748Z,2.30
2023-01-19T11:25:42.117Z,2.55
2023-01-19T11:28:08.484Z,2.20
2023-01-19T11:30:34.919Z,2.75
2023-01-19T11:33:01.737Z,2.20
2023-01-19T11:35:28.217Z,2.00
2023-01-19T11:37:54.651Z,2.00
2023-01-19T11:40:21.096Z,2.15
2023-01-19T11:42:47.477Z,2.50
2023-01-19T11:45:14.129Z,2.83
2023-01-19T11:47:40.563Z,1.90
2023-01-19T11:50:06.953Z,2.13
2023-01-19T11:52:33.336Z,2.28
2023-01-19T11:54:59.744Z,2.22
2023-01-19T11:57:26.106Z,1.95
2023-01-19T11:59:52.469Z,2.58
2023-01-19T12:02:18.917Z,1.75
2023-01-19T12:04:45.312Z,1.80
2023-01-19T12:07:11.676Z,2.20
2023-01-19T12:09:38.193Z,2.50
2023-01-19T12:12:04.591Z,2.17
2023-01-19T12:14:31.019Z,1.83
2023-01-19T12:16:57.425Z,2.28
2023-01-19T12:19:23.867Z,2.08
2023-01-19T12:21:50.250Z,1.92
2023-01-19T12:24:16.775Z,2.30
2023-01-19T12:26:43.237Z,2.50
2023-01-19T12:29:09.661Z,2.00
2023-01-19T12:31:36.125Z,1.58
2023-01-19T12:34:02.600Z,1.75
2023-01-19T12:36:29.004Z,1.90
2023-01-19T12:38:55.384Z,2.20
2023-01-19T12:41:21.788Z,1.90
2023-01-19T12:43:48.202Z,1.85
2023-01-19T12:46:14.668Z,1.50
2023-01-19T12:48:41.094Z,1.98
2023-01-19T12:51:07.469Z,1.63
2023-01-19T12:53:33.849Z,1.80
2023-01-19T12:56:00.267Z,1.98
2023-01-19T12:58:26.655Z,1.92
2023-01-19T13:00:53.090Z,1.65
2023-01-19T13:03:19.488Z,1.50
2023-01-19T13:05:45.878Z,1.60
2023-01-19T13:08:12.249Z,1.48
2023-01-19T13:10:38.662Z,1.58
2023-01-19T13:13:05.069Z,1.75
2023-01-19T13:15:31.516Z,1.60
2023-01-19T13:17:57.949Z,1.60
2023-01-19T13:20:24.340Z,1.30
2023-01-19T13:22:50.714Z,1.30
2023-01-19T13:25:17.096Z,1.25
2023-01-19T13:27:43.462Z,1.30
2023-01-19T13:30:09.831Z,1.10
2023-01-19T13:32:36.187Z,1.83
2023-01-19T13:35:02.695Z,1.20
2023-01-19T13:37:29.185Z,1.40
2023-01-19T13:39:55.551Z,1.65
2023-01-19T13:42:21.971Z,1.45
2023-01-19T13:44:48.441Z,1.33
2023-01-19T13:47:14.866Z,1.23
2023-01-19T13:49:41.296Z,1.20
2023-01-19T13:52:07.679Z,1.45
2023-01-19T13:54:34.071Z,1.08
2023-01-19T13:57:00.500Z,1.00
2023-01-19T13:59:26.942Z,1.52
2023-01-19T14:01:53.467Z,1.23
2023-01-19T14:04:19.944Z,1.02
2023-01-19T14:06:47.651Z,0.93
2023-01-19T14:09:15.301Z,1.00
2023-01-19T14:11:41.711Z,1.50
2023-01-19T14:14:08.139Z,1.10
2023-01-19T14:16:34.564Z,1.25
2023-01-19T14:19:00.956Z,1.30
2023-01-19T14:21:27.389Z,2.10
2023-01-19T14:23:53.838Z,2.63
2023-01-19T14:26:20.212Z,3.10
2023-01-19T14:28:46.584Z,2.85
2023-01-19T14:31:13.039Z,2.55
2023-01-19T14:33:39.453Z,3.42
2023-01-19T14:36:05.825Z,2.13
2023-01-19T14:38:32.262Z,1.80
2023-01-19T14:40:58.667Z,1.80
2023-01-19T14:43:25.039Z,1.60
2023-01-19T14:45:51.475Z,1.83
2023-01-19T14:48:18.265Z,1.50
2023-01-19T14:51:01.369Z,1.52
2023-01-19T14:53:28.695Z,3.55
2023-01-19T14:55:55.119Z,6.22
2023-01-19T14:58:21.563Z,6.05
2023-01-19T15:00:48.052Z,3.78
2023-01-19T15:03:14.449Z,2.20
2023-01-19T15:05:40.835Z,2.03
2023-01-19T15:08:07.211Z,1.70
2023-01-19T15:10:33.655Z,1.52
2023-01-19T15:13:00.121Z,1.33
2023-01-19T15:15:26.532Z,1.58
2023-01-19T15:17:54.681Z,1.05
2023-01-19T15:20:22.386Z,1.42
2023-01-19T15:22:48.805Z,1.27
2023-01-19T15:25:15.172Z,1.35
2023-01-19T15:27:41.611Z,1.30
2023-01-19T15:30:08.008Z,1.20
2023-01-19T15:32:34.390Z,1.30
2023-01-19T15:35:00.800Z,2.25
2023-01-19T15:37:27.182Z,2.30
2023-01-19T15:39:53.555Z,1.83
2023-01-19T15:42:19.993Z,2.50
2023-01-19T15:44:46.425Z,1.95
2023-01-19T15:47:12.865Z,1.50
2023-01-19T15:49:39.315Z,1.65
2023-01-19T15:52:05.766Z,1.85
2023-01-19T15:54:32.357Z,1.70
2023-01-19T15:56:58.809Z,1.77
2023-01-19T15:59:25.242Z,1.95
2023-01-19T16:01:51.814Z,1.45
2023-01-19T16:04:18.685Z,1.52
2023-01-19T16:06:45.090Z,1.00
2023-01-19T16:09:11.480Z,1.27
2023-01-19T16:11:37.880Z,1.27
2023-01-19T16:14:04.333Z,1.02
2023-01-19T16:16:30.816Z,1.48
2023-01-19T16:18:57.289Z,1.35
2023-01-19T16:21:23.692Z,1.40
2023-01-19T16:23:50.128Z,1.63
2023-01-19T16:26:17.621Z,1.17
2023-01-19T16:28:44.154Z,1.20
2023-01-19T16:31:10.612Z,1.00
2023-01-19T16:33:37.035Z,1.20
2023-01-19T16:36:03.455Z,1.08
2023-01-19T16:38:29.910Z,1.30
2023-01-19T16:40:56.350Z,1.20
2023-01-19T16:43:22.727Z,1.23
2023-01-19T16:45:49.374Z,1.58
2023-01-19T16:48:15.851Z,1.50
2023-01-19T16:50:42.284Z,4.47
2023-01-19T16:53:08.675Z,4.45
2023-01-19T16:55:35.106Z,3.05
2023-01-19T16:58:01.497Z,2.35
2023-01-19T17:00:27.965Z,2.40
2023-01-19T17:02:54.486Z,1.75
2023-01-19T17:05:20.923Z,1.40
2023-01-19T17:07:47.388Z,1.42
2023-01-19T17:10:14.004Z,1.40
2023-01-19T17:12:40.490Z,1.20
2023-01-19T17:15:06.924Z,1.05
2023-01-19T17:17:33.376Z,1.10
2023-01-19T17:19:59.765Z,1.75
2023-01-19T17:22:26.214Z,1.55
2023-01-19T17:24:52.609Z,1.40
2023-01-19T17:27:19.039Z,1.52
2023-01-19T17:29:45.510Z,1.75
2023-01-19T17:32:11.994Z,1.75
2023-01-19T17:34:38.428Z,2.20
2023-01-19T17:37:04.899Z,2.53
2023-01-19T17:39:31.349Z,1.90
2023-01-19T17:41:57.798Z,2.40
2023-01-19T17:44:24.198Z,2.42
2023-01-19T17:46:50.632Z,2.70
2023-01-19T17:49:17.026Z,2.75
2023-01-19T17:51:43.392Z,2.67
2023-01-19T17:54:09.833Z,3.45
2023-01-19T17:56:36.245Z,3.30
2023-01-19T17:59:02.655Z,4.03
2023-01-19T18:01:29.217Z,4.78
2023-01-19T18:03:55.708Z,4.38
2023-01-19T18:06:22.084Z,4.68
2023-01-19T18:08:48.717Z,4.32
2023-01-19T18:11:15.177Z,4.63
2023-01-19T18:13:41.579Z,3.95
2023-01-19T18:16:08.066Z,4.28
2023-01-19T18:18:34.539Z,4.95
2023-01-19T18:21:01.012Z,4.70
2023-01-19T18:23:27.477Z,4.47
2023-01-19T18:25:53.886Z,4.38
2023-01-19T18:28:20.267Z,4.15
2023-01-19T18:30:46.813Z,4.63
2023-01-19T18:33:13.337Z,4.57
2023-01-19T18:35:39.740Z,4.50
2023-01-19T18:38:06.214Z,5.35
2023-01-19T18:40:32.600Z,4.78
2023-01-19T18:42:58.976Z,5.47
2023-01-19T18:45:25.373Z,6.05
2023-01-19T18:47:51.827Z,6.50
2023-01-19T18:50:18.383Z,5.82
2023-01-19T18:52:44.769Z,5.53
2023-01-19T18:55:11.200Z,6.55
2023-01-19T18:57:37.663Z,6.00
2023-01-19T19:00:04.064Z,6.53
2023-01-19T19:02:30.499Z,7.32
2023-01-19T19:04:56.879Z,7.38
2023-01-19T19:07:23.309Z,7.22
2023-01-19T19:09:49.703Z,7.25
2023-01-19T19:12:16.155Z,7.50
2023-01-19T19:14:42.547Z,7.40
2023-01-19T19:17:08.928Z,7.55
2023-01-19T19:19:35.363Z,7.45
2023-01-19T19:22:01.796Z,8.25
2023-01-19T19:24:28.190Z,7.50
2023-01-19T19:26:54.560Z,7.53
2023-01-19T19:29:20.987Z,8.57
2023-01-19T19:31:47.572Z,8.40
2023-01-19T19:34:13.961Z,9.25
2023-01-19T19:36:40.379Z,9.15
2023-01-19T19:39:06.756Z,9.40
2023-01-19T19:41:33.151Z,10.82
2023-01-19T19:43:59.511Z,9.43
2023-01-19T19:46:25.928Z,10.35
2023-01-19T19:48:52.363Z,8.77
2023-01-19T19:51:19.596Z,9.13
2023-01-19T19:53:46.173Z,8.93
2023-01-19T19:56:12.583Z,9.02
2023-01-19T19:58:39.012Z,9.57
2023-01-19T20:01:05.515Z,8.80
2023-01-19T20:03:31.940Z,9.02
2023-01-19T20:05:58.369Z,8.48
2023-01-19T20:08:24.747Z,8.52
2023-01-19T20:10:51.178Z,9.68
2023-01-19T20:13:17.573Z,9.35
2023-01-19T20:15:44.029Z,10.10
2023-01-19T20:18:10.489Z,8.73
2023-01-19T20:20:36.939Z,11.35
2023-01-19T20:23:03.343Z,10.23
2023-01-19T20:25:29.726Z,11.38
2023-01-19T20:27:56.140Z,9.05
2023-01-19T20:30:22.664Z,10.75
2023-01-19T20:32:49.077Z,10.00
2023-01-19T20:35:15.703Z,9.63
2023-01-19T20:37:42.188Z,10.73
2023-01-19T20:40:08.622Z,10.23
2023-01-19T20:42:35.088Z,10.18
2023-01-19T20:45:01.532Z,11.23
2023-01-19T20:47:27.979Z,9.43
2023-01-19T20:49:54.450Z,12.05
2023-01-19T20:52:20.871Z,11.13
2023-01-19T20:54:47.261Z,11.43
2023-01-19T20:57:13.635Z,11.30
2023-01-19T20:59:40.027Z,10.63
2023-01-19T21:02:06.639Z,11.18
2023-01-19T21:04:33.090Z,10.63
2023-01-19T21:06:59.459Z,10.05
2023-01-19T21:09:25.825Z,11.10
2023-01-19T21:11:52.210Z,11.02
2023-01-19T21:14:18.747Z,10.93
2023-01-19T21:16:45.161Z,10.00
2023-01-19T21:19:11.596Z,11.82
2023-01-19T21:21:38.049Z,11.55
2023-01-19T21:24:04.519Z,9.90
2023-01-19T21:26:30.950Z,9.93
2023-01-19T21:28:57.340Z,9.90
2023-01-19T21:31:26.341Z,11.00
2023-01-19T21:33:53.711Z,9.48
2023-01-19T21:36:20.141Z,9.95
2023-01-19T21:38:46.549Z,9.13
2023-01-19T21:41:13.021Z,11.10
2023-01-19T21:43:39.449Z,8.85
2023-01-19T21:46:05.881Z,9.63
2023-01-19T21:48:32.291Z,10.32
2023-01-19T21:50:58.736Z,10.25
2023-01-19T21:53:25.135Z,10.95
2023-01-19T21:55:51.517Z,10.48
2023-01-19T21:58:17.914Z,10.30
2023-01-19T22:00:44.362Z,9.98
2023-01-19T22:03:10.828Z,11.02
2023-01-19T22:05:37.264Z,10.10
2023-01-19T22:08:03.678Z,9.73
2023-01-19T22:10:30.125Z,10.32
2023-01-19T22:12:56.513Z,9.63
2023-01-19T22:15:22.922Z,10.05
2023-01-19T22:17:49.661Z,10.13
2023-01-19T22:20:16.096Z,8.05
2023-01-19T22:22:42.538Z,8.75
2023-01-19T22:25:08.992Z,9.38
2023-01-19T22:27:35.383Z,9.90
2023-01-19T22:30:01.809Z,10.40
2023-01-19T22:32:28.262Z,11.57
2023-01-19T22:34:54.639Z,11.18
2023-01-19T22:37:21.001Z,10.65
2023-01-19T22:39:47.391Z,11.18
2023-01-19T22:42:13.768Z,11.02
2023-01-19T22:44:40.289Z,10.88
2023-01-19T22:47:06.711Z,11.98
2023-01-19T22:49:33.092Z,11.13
2023-01-19T22:51:59.466Z,10.68
2023-01-19T22:54:25.877Z,11.05
2023-01-19T22:56:52.286Z,10.30
2023-01-19T22:59:18.825Z,10.57
2023-01-19T23:01:45.367Z,11.05
2023-01-19T23:04:11.817Z,10.70
2023-01-19T23:06:38.201Z,9.35
2023-01-19T23:09:04.679Z,9.30
2023-01-19T23:11:31.072Z,9.85
2023-01-19T23:13:57.488Z,9.27
2023-01-19T23:16:23.965Z,10.50
2023-01-19T23:18:50.405Z,10.10
2023-01-19T23:21:16.791Z,9.57
2023-01-19T23:23:43.182Z,8.68
2023-01-19T23:26:09.557Z,9.45
2023-01-19T23:28:35.972Z,10.30
2023-01-19T23:31:02.478Z,9.63
2023-01-19T23:33:29.013Z,10.20
2023-01-19T23:35:55.478Z,10.95
2023-01-19T23:38:22.631Z,10.52
2023-01-19T23:40:49.183Z,12.05
2023-01-19T23:43:15.585Z,10.85
2023-01-19T23:45:42.066Z,10.98
2023-01-19T23:48:08.439Z,11.02
2023-01-19T23:50:34.874Z,10.73
2023-01-19T23:53:01.331Z,12.25
2023-01-19T23:55:27.757Z,12.32
2023-01-19T23:57:54.347Z,11.70
